createdAt,value
2022-09-07T00:00:09.804Z,93.28
2022-09-07T00:00:42.081Z,93.83
2022-09-07T00:01:13.751Z,93.71
2022-09-07T00:01:45.566Z,93.63
2022-09-07T00:02:17.188Z,92.02
2022-09-07T00:02:48.856Z,91.04
2022-09-07T00:03:21.568Z,92.16
2022-09-07T00:03:57.060Z,89.71
2022-09-07T00:04:28.790Z,90.18
2022-09-07T00:05:00.473Z,90.46
2022-09-07T00:05:32.469Z,90.12
2022-09-07T00:06:09.478Z,89.51
2022-09-07T00:06:41.154Z,89.73
2022-09-07T00:07:12.761Z,89.68
2022-09-07T00:07:44.421Z,88.53
2022-09-07T00:08:18.391Z,88.70
2022-09-07T00:08:50.200Z,90.54
2022-09-07T00:09:21.805Z,91.06
2022-09-07T00:09:53.481Z,91.38
2022-09-07T00:10:25.921Z,91.84
2022-09-07T00:11:04.002Z,91.94
2022-09-07T00:11:36.253Z,92.17
2022-09-07T00:12:07.867Z,92.31
2022-09-07T00:12:39.653Z,92.72
2022-09-07T00:13:11.249Z,93.01
2022-09-07T00:13:44.818Z,92.83
2022-09-07T00:14:16.747Z,92.70
2022-09-07T00:14:48.358Z,92.78
2022-09-07T00:15:20.152Z,92.68
2022-09-07T00:15:51.946Z,91.89
2022-09-07T00:16:27.103Z,92.62
2022-09-07T00:16:58.749Z,92.16
2022-09-07T00:17:30.357Z,92.20
2022-09-07T00:18:01.946Z,92.82
2022-09-07T00:18:33.794Z,92.43
2022-09-07T00:19:05.619Z,93.23
2022-09-07T00:19:37.241Z,93.20
2022-09-07T00:20:11.139Z,92.94
2022-09-07T00:20:42.768Z,92.61
2022-09-07T00:21:16.868Z,92.92
2022-09-07T00:21:48.506Z,92.93
2022-09-07T00:22:20.141Z,92.97
2022-09-07T00:22:51.765Z,93.09
2022-09-07T00:23:23.404Z,92.97
2022-09-07T00:23:55.605Z,93.09
2022-09-07T00:24:27.690Z,92.47
2022-09-07T00:24:59.300Z,93.42
2022-09-07T00:25:32.140Z,93.19
2022-09-07T00:26:10.467Z,92.55
2022-09-07T00:26:42.090Z,92.78
2022-09-07T00:27:13.755Z,92.72
2022-09-07T00:27:45.355Z,92.84
2022-09-07T00:28:16.979Z,92.96
2022-09-07T00:28:49.738Z,92.89
2022-09-07T00:29:21.414Z,93.08
2022-09-07T00:29:53.042Z,93.01
2022-09-07T00:30:24.665Z,93.38
2022-09-07T00:30:56.454Z,92.52
2022-09-07T00:31:29.865Z,92.48
2022-09-07T00:32:01.603Z,92.70
2022-09-07T00:32:33.506Z,93.25
2022-09-07T00:33:05.094Z,92.93
2022-09-07T00:33:36.704Z,92.75
2022-09-07T00:34:08.316Z,93.06
2022-09-07T00:34:39.918Z,93.43
2022-09-07T00:35:12.688Z,93.26
2022-09-07T00:35:44.340Z,93.75
2022-09-07T00:36:17.111Z,92.52
2022-09-07T00:36:48.738Z,92.90
2022-09-07T00:37:20.495Z,92.93
2022-09-07T00:37:52.123Z,93.07
2022-09-07T00:38:23.717Z,92.99
2022-09-07T00:38:55.632Z,93.49
2022-09-07T00:39:27.253Z,93.66
2022-09-07T00:39:58.943Z,93.57
2022-09-07T00:40:30.972Z,93.45
2022-09-07T00:41:02.658Z,93.74
2022-09-07T00:41:34.322Z,93.69
2022-09-07T00:42:06.206Z,93.78
2022-09-07T00:42:37.924Z,93.59
2022-09-07T00:43:16.965Z,93.56
2022-09-07T00:43:51.648Z,93.36
2022-09-07T00:44:44.725Z,93.64
2022-09-07T00:45:17.830Z,93.58
2022-09-07T00:45:49.422Z,93.73
2022-09-07T00:46:25.097Z,93.83
2022-09-07T00:46:57.671Z,94.02
2022-09-07T00:47:45.096Z,94.05
2022-09-07T00:48:19.938Z,94.00
2022-09-07T00:49:02.454Z,93.64
2022-09-07T00:49:35.243Z,93.36
2022-09-07T00:50:27.934Z,93.24
2022-09-07T00:51:04.702Z,93.66
2022-09-07T00:51:43.781Z,93.64
2022-09-07T00:52:17.438Z,93.74
2022-09-07T00:52:53.203Z,94.04
2022-09-07T00:53:43.294Z,93.93
2022-09-07T00:54:19.352Z,94.09
2022-09-07T00:54:54.410Z,93.63
2022-09-07T00:55:27.633Z,93.49
2022-09-07T00:56:01.228Z,93.46
2022-09-07T00:56:36.878Z,93.22
2022-09-07T00:57:08.950Z,93.64
2022-09-07T00:57:43.153Z,93.71
2022-09-07T00:58:15.776Z,93.68
2022-09-07T00:58:47.474Z,93.68
2022-09-07T00:59:25.589Z,92.97
2022-09-07T00:59:57.784Z,93.05
2022-09-07T01:00:30.858Z,93.24
2022-09-07T01:01:02.499Z,93.25
2022-09-07T01:01:34.749Z,93.31
2022-09-07T01:02:06.694Z,93.84
2022-09-07T01:02:38.884Z,93.91
2022-09-07T01:03:11.436Z,93.99
2022-09-07T01:03:48.864Z,93.51
2022-09-07T01:04:22.245Z,93.85
2022-09-07T01:05:04.494Z,94.08
2022-09-07T01:05:43.666Z,94.06
2022-09-07T01:06:26.438Z,93.96
2022-09-07T01:06:58.996Z,93.81
2022-09-07T01:07:30.875Z,93.76
2022-09-07T01:08:03.134Z,93.87
2022-09-07T01:08:35.998Z,93.48
2022-09-07T01:09:11.635Z,93.58
2022-09-07T01:09:44.095Z,94.00
2022-09-07T01:10:15.982Z,93.91
2022-09-07T01:10:47.618Z,93.97
2022-09-07T01:11:22.276Z,93.87
2022-09-07T01:11:57.709Z,93.94
2022-09-07T01:12:29.329Z,92.40
2022-09-07T01:13:00.985Z,93.62
2022-09-07T01:13:32.634Z,93.87
2022-09-07T01:14:09.208Z,93.78
2022-09-07T01:14:50.637Z,93.81
2022-09-07T01:15:25.271Z,94.12
2022-09-07T01:16:16.051Z,94.23
2022-09-07T01:17:17.110Z,93.97
2022-09-07T01:18:03.570Z,94.03
2022-09-07T01:19:19.272Z,94.00
2022-09-07T01:20:09.291Z,93.93
2022-09-07T01:20:43.819Z,93.58
2022-09-07T01:21:33.109Z,93.53
2022-09-07T01:22:34.740Z,93.63
2022-09-07T01:23:21.311Z,93.77
2022-09-07T01:24:27.745Z,93.73
2022-09-07T01:25:04.777Z,94.00
2022-09-07T01:26:01.310Z,94.16
2022-09-07T01:26:56.987Z,94.10
2022-09-07T01:27:36.209Z,93.50
2022-09-07T01:28:32.320Z,93.78
2022-09-07T01:29:16.681Z,94.21
2022-09-07T01:29:54.230Z,94.11
2022-09-07T01:30:27.289Z,94.16
2022-09-07T01:31:04.618Z,94.10
2022-09-07T01:32:02.954Z,94.35
2022-09-07T01:32:48.213Z,94.26
2022-09-07T01:33:51.731Z,94.09
2022-09-07T01:34:26.435Z,94.14
2022-09-07T01:35:01.957Z,94.53
2022-09-07T01:35:36.458Z,94.89
2022-09-07T01:36:10.682Z,94.77
2022-09-07T01:36:57.227Z,94.60
2022-09-07T01:37:50.587Z,94.34
2022-09-07T01:38:33.173Z,94.51
2022-09-07T01:39:06.325Z,94.74
2022-09-07T01:39:51.635Z,94.49
2022-09-07T01:40:38.285Z,94.39
2022-09-07T01:41:35.613Z,94.96
2022-09-07T01:42:15.585Z,94.60
2022-09-07T01:42:59.495Z,94.59
2022-09-07T01:43:34.061Z,94.56
2022-09-07T01:44:08.005Z,94.60
2022-09-07T01:44:46.529Z,94.52
2022-09-07T01:45:22.163Z,94.90
2022-09-07T01:45:56.158Z,94.63
2022-09-07T01:46:31.849Z,94.66
2022-09-07T01:47:13.197Z,94.57
2022-09-07T01:47:53.073Z,94.54
2022-09-07T01:48:26.478Z,94.53
2022-09-07T01:49:08.287Z,94.56
2022-09-07T01:49:42.630Z,94.76
2022-09-07T01:50:16.845Z,94.78
2022-09-07T01:50:58.023Z,94.52
2022-09-07T01:51:33.545Z,94.60
2022-09-07T01:52:40.068Z,94.78
2022-09-07T01:53:34.861Z,94.99
2022-09-07T01:54:13.119Z,95.05
2022-09-07T01:54:51.837Z,94.88
2022-09-07T01:55:49.855Z,94.68
2022-09-07T01:56:27.808Z,94.76
2022-09-07T01:57:05.175Z,94.92
2022-09-07T01:57:43.568Z,94.96
2022-09-07T01:58:22.034Z,94.91
2022-09-07T01:58:58.722Z,94.88
2022-09-07T01:59:32.617Z,94.96
2022-09-07T02:00:07.951Z,94.92
2022-09-07T02:01:36.643Z,94.60
2022-09-07T02:02:16.674Z,94.63
2022-09-07T02:03:12.106Z,94.43
2022-09-07T02:03:58.446Z,94.57
2022-09-07T02:04:39.981Z,94.80
2022-09-07T02:05:19.149Z,94.97
2022-09-07T02:06:10.759Z,94.79
2022-09-07T02:07:04.800Z,94.78
2022-09-07T02:07:42.365Z,95.05
2022-09-07T02:08:19.473Z,94.96
2022-09-07T02:09:04.633Z,94.78
2022-09-07T02:09:42.739Z,94.87
2022-09-07T02:10:19.439Z,94.96
2022-09-07T02:11:03.901Z,94.71
2022-09-07T02:11:39.960Z,94.67
2022-09-07T02:12:26.985Z,94.75
2022-09-07T02:13:12.231Z,94.70
2022-09-07T02:13:54.221Z,94.84
2022-09-07T02:14:32.252Z,94.87
2022-09-07T02:15:11.107Z,94.78
2022-09-07T02:15:52.236Z,94.39
2022-09-07T02:16:28.417Z,94.65
2022-09-07T02:17:12.317Z,94.86
2022-09-07T02:17:49.645Z,94.81
2022-09-07T02:18:22.936Z,94.66
2022-09-07T02:19:02.553Z,94.98
2022-09-07T02:19:42.496Z,94.62
2022-09-07T02:20:19.456Z,94.56
2022-09-07T02:20:54.560Z,94.47
2022-09-07T02:21:36.565Z,94.30
2022-09-07T02:22:14.399Z,94.65
2022-09-07T02:22:51.067Z,94.87
2022-09-07T02:23:26.245Z,94.96
2022-09-07T02:24:04.583Z,94.91
2022-09-07T02:24:42.894Z,94.72
2022-09-07T02:25:21.981Z,94.62
2022-09-07T02:26:02.129Z,94.45
2022-09-07T02:26:36.739Z,94.52
2022-09-07T02:27:13.540Z,94.92
2022-09-07T02:27:54.399Z,94.62
2022-09-07T02:28:44.166Z,94.13
2022-09-07T02:29:15.874Z,94.14
2022-09-07T02:29:47.645Z,94.26
2022-09-07T02:30:19.353Z,94.56
2022-09-07T02:30:51.179Z,94.27
2022-09-07T02:31:23.753Z,94.28
2022-09-07T02:31:55.479Z,94.28
2022-09-07T02:32:27.131Z,94.41
2022-09-07T02:32:58.860Z,94.34
2022-09-07T02:33:31.064Z,94.22
2022-09-07T02:34:02.677Z,94.53
2022-09-07T02:34:34.406Z,94.44
2022-09-07T02:35:06.781Z,94.04
2022-09-07T02:35:38.596Z,94.12
2022-09-07T02:36:12.722Z,94.20
2022-09-07T02:36:47.758Z,94.34
2022-09-07T02:37:20.579Z,94.10
2022-09-07T02:37:53.124Z,94.31
2022-09-07T02:38:24.829Z,94.30
2022-09-07T02:38:56.535Z,94.32
2022-09-07T02:39:28.404Z,94.25
2022-09-07T02:40:00.494Z,93.82
2022-09-07T02:40:32.662Z,93.69
2022-09-07T02:41:05.450Z,93.86
2022-09-07T02:41:40.303Z,93.85
2022-09-07T02:42:12.013Z,93.72
2022-09-07T02:42:45.153Z,93.87
2022-09-07T02:43:16.811Z,93.89
2022-09-07T02:43:48.425Z,93.80
2022-09-07T02:44:23.294Z,93.68
2022-09-07T02:44:55.085Z,93.97
2022-09-07T02:45:37.866Z,94.07
2022-09-07T02:46:19.679Z,93.59
2022-09-07T02:47:15.754Z,93.81
2022-09-07T02:47:48.558Z,94.20
2022-09-07T02:48:29.755Z,94.43
2022-09-07T02:49:01.356Z,94.57
2022-09-07T02:50:04.350Z,94.56
2022-09-07T02:50:58.666Z,94.57
2022-09-07T02:51:45.567Z,94.23
2022-09-07T02:52:28.994Z,93.71
2022-09-07T02:53:27.539Z,93.67
2022-09-07T02:54:40.557Z,93.75
2022-09-07T02:55:31.708Z,94.34
2022-09-07T02:56:12.605Z,94.30
2022-09-07T02:57:10.030Z,94.11
2022-09-07T02:58:44.127Z,94.71
2022-09-07T02:59:37.506Z,94.44
2022-09-07T03:00:18.022Z,94.09
2022-09-07T03:01:04.235Z,93.72
2022-09-07T03:01:41.722Z,94.25
2022-09-07T03:02:24.893Z,93.45
2022-09-07T03:03:21.440Z,94.23
2022-09-07T03:04:18.642Z,93.87
2022-09-07T03:05:14.594Z,94.25
2022-09-07T03:06:02.941Z,93.64
2022-09-07T03:06:53.409Z,93.59
2022-09-07T03:07:35.782Z,93.68
2022-09-07T03:08:14.063Z,93.94
2022-09-07T03:08:50.605Z,94.01
2022-09-07T03:09:28.683Z,94.40
2022-09-07T03:10:03.121Z,94.62
2022-09-07T03:10:38.734Z,93.58
2022-09-07T03:11:10.613Z,93.55
2022-09-07T03:11:42.593Z,93.69
2022-09-07T03:12:14.463Z,93.32
2022-09-07T03:12:49.320Z,93.75
2022-09-07T03:13:26.747Z,93.47
2022-09-07T03:14:15.419Z,93.53
2022-09-07T03:14:47.039Z,93.42
2022-09-07T03:15:22.496Z,92.93
2022-09-07T03:15:56.308Z,93.28
2022-09-07T03:16:28.151Z,93.59
2022-09-07T03:17:00.462Z,93.83
2022-09-07T03:17:32.185Z,93.37
2022-09-07T03:18:03.845Z,92.97
2022-09-07T03:18:35.449Z,93.48
2022-09-07T03:19:07.064Z,93.66
2022-09-07T03:19:38.733Z,93.61
2022-09-07T03:20:10.685Z,93.07
2022-09-07T03:20:42.318Z,93.45
2022-09-07T03:21:13.929Z,93.17
2022-09-07T03:21:45.724Z,93.01
2022-09-07T03:22:17.309Z,92.83
2022-09-07T03:22:50.577Z,92.04
2022-09-07T03:23:22.310Z,91.68
2022-09-07T03:23:54.964Z,92.32
2022-09-07T03:24:26.537Z,92.53
2022-09-07T03:24:58.138Z,92.22
2022-09-07T03:25:29.735Z,92.02
2022-09-07T03:26:01.339Z,91.56
2022-09-07T03:26:33.009Z,91.32
2022-09-07T03:27:04.637Z,90.90
2022-09-07T03:27:36.375Z,91.13
2022-09-07T03:28:08.005Z,92.13
2022-09-07T03:28:39.594Z,91.56
2022-09-07T03:29:11.305Z,91.69
2022-09-07T03:29:43.001Z,90.80
2022-09-07T03:30:14.781Z,90.74
2022-09-07T03:30:49.345Z,91.37
2022-09-07T03:31:21.089Z,91.41
2022-09-07T03:31:53.030Z,90.98
2022-09-07T03:32:24.947Z,91.11
2022-09-07T03:32:56.625Z,91.35
2022-09-07T03:33:28.253Z,91.08
2022-09-07T03:33:59.915Z,91.22
2022-09-07T03:34:31.574Z,91.29
2022-09-07T03:35:04.745Z,92.07
2022-09-07T03:35:36.349Z,91.94
2022-09-07T03:36:08.167Z,91.33
2022-09-07T03:36:40.497Z,91.48
2022-09-07T03:37:12.126Z,91.31
2022-09-07T03:37:44.308Z,91.24
2022-09-07T03:38:15.961Z,91.91
2022-09-07T03:38:47.533Z,92.22
2022-09-07T03:39:22.616Z,92.22
2022-09-07T03:39:54.330Z,91.96
2022-09-07T03:40:25.969Z,91.53
2022-09-07T03:40:59.676Z,90.91
2022-09-07T03:41:31.443Z,91.62
2022-09-07T03:42:03.119Z,91.81
2022-09-07T03:42:35.458Z,91.85
2022-09-07T03:43:07.070Z,92.47
2022-09-07T03:43:38.900Z,92.25
2022-09-07T03:44:11.793Z,91.39
2022-09-07T03:44:43.389Z,91.46
2022-09-07T03:45:15.014Z,91.14
2022-09-07T03:45:46.628Z,91.52
2022-09-07T03:46:19.578Z,91.93
2022-09-07T03:46:51.277Z,91.78
2022-09-07T03:47:22.897Z,92.06
2022-09-07T03:47:54.525Z,92.25
2022-09-07T03:48:27.305Z,92.22
2022-09-07T03:48:58.997Z,91.90
2022-09-07T03:49:30.927Z,91.44
2022-09-07T03:50:03.022Z,91.78
2022-09-07T03:50:34.622Z,91.28
2022-09-07T03:51:09.022Z,90.85
2022-09-07T03:51:40.609Z,91.67
2022-09-07T03:52:12.414Z,91.88
2022-09-07T03:52:44.279Z,92.01
2022-09-07T03:53:15.899Z,91.48
2022-09-07T03:53:47.885Z,91.07
2022-09-07T03:54:19.468Z,90.90
2022-09-07T03:54:51.061Z,90.49
2022-09-07T03:55:22.720Z,90.67
2022-09-07T03:56:09.355Z,90.78
2022-09-07T03:56:40.975Z,90.86
2022-09-07T03:57:13.322Z,90.78
2022-09-07T03:57:44.904Z,90.37
2022-09-07T03:58:16.510Z,90.36
2022-09-07T03:58:49.938Z,90.49
2022-09-07T03:59:21.772Z,91.42
2022-09-07T03:59:53.363Z,91.53
2022-09-07T04:00:26.138Z,91.79
2022-09-07T04:00:58.820Z,91.52
2022-09-07T04:01:30.640Z,91.40
2022-09-07T04:02:02.561Z,91.56
2022-09-07T04:02:34.270Z,91.38
2022-09-07T04:03:05.882Z,91.85
2022-09-07T04:03:37.855Z,92.02
2022-09-07T04:04:09.488Z,92.12
2022-09-07T04:04:42.863Z,92.28
2022-09-07T04:05:15.054Z,92.57
2022-09-07T04:05:46.750Z,92.61
2022-09-07T04:06:18.783Z,92.42
2022-09-07T04:06:50.926Z,92.69
2022-09-07T04:07:22.547Z,92.85
2022-09-07T04:07:54.156Z,92.81
2022-09-07T04:08:27.821Z,92.48
2022-09-07T04:09:17.752Z,92.50
2022-09-07T04:09:51.322Z,92.30
2022-09-07T04:10:22.914Z,92.37
2022-09-07T04:10:57.300Z,92.47
2022-09-07T04:11:28.902Z,92.79
2022-09-07T04:12:00.698Z,92.68
2022-09-07T04:12:32.342Z,92.81
2022-09-07T04:13:04.258Z,92.81
2022-09-07T04:13:36.684Z,92.71
2022-09-07T04:14:10.103Z,92.95
2022-09-07T04:14:41.730Z,92.75
2022-09-07T04:15:13.374Z,92.68
2022-09-07T04:15:44.962Z,93.03
2022-09-07T04:16:22.048Z,93.22
2022-09-07T04:16:53.736Z,93.31
2022-09-07T04:17:25.330Z,93.37
2022-09-07T04:17:56.918Z,93.31
2022-09-07T04:18:28.504Z,92.99
2022-09-07T04:19:00.194Z,93.19
2022-09-07T04:19:32.073Z,92.91
2022-09-07T04:20:04.630Z,92.73
2022-09-07T04:20:36.252Z,92.80
2022-09-07T04:21:07.994Z,93.25
2022-09-07T04:21:39.966Z,93.16
2022-09-07T04:22:11.693Z,93.12
2022-09-07T04:22:44.132Z,93.19
2022-09-07T04:23:15.726Z,92.82
2022-09-07T04:23:47.914Z,92.99
2022-09-07T04:24:19.532Z,92.99
2022-09-07T04:24:51.187Z,92.88
2022-09-07T04:25:22.848Z,93.05
2022-09-07T04:25:54.539Z,93.08
2022-09-07T04:26:31.925Z,93.30
2022-09-07T04:27:03.612Z,92.85
2022-09-07T04:27:35.237Z,92.96
2022-09-07T04:28:06.818Z,92.95
2022-09-07T04:28:38.404Z,92.98
2022-09-07T04:29:11.371Z,92.92
2022-09-07T04:29:42.977Z,92.81
2022-09-07T04:30:14.588Z,92.76
2022-09-07T04:30:47.451Z,92.53
2022-09-07T04:31:20.308Z,92.72
2022-09-07T04:31:51.994Z,92.77
2022-09-07T04:32:23.610Z,92.21
2022-09-07T04:32:55.210Z,92.31
2022-09-07T04:33:26.788Z,92.20
2022-09-07T04:33:58.498Z,91.97
2022-09-07T04:34:30.256Z,92.03
2022-09-07T04:35:02.114Z,91.19
2022-09-07T04:35:36.836Z,90.96
2022-09-07T04:36:10.484Z,90.97
2022-09-07T04:36:42.143Z,91.11
2022-09-07T04:37:13.731Z,91.18
2022-09-07T04:37:45.574Z,91.72
2022-09-07T04:38:17.241Z,91.90
2022-09-07T04:38:55.737Z,92.28
2022-09-07T04:39:27.421Z,92.34
2022-09-07T04:39:59.100Z,92.51
2022-09-07T04:40:30.744Z,91.30
2022-09-07T04:41:09.413Z,91.00
2022-09-07T04:41:41.022Z,91.34
2022-09-07T04:42:12.657Z,90.90
2022-09-07T04:42:44.394Z,91.34
2022-09-07T04:43:16.093Z,91.77
2022-09-07T04:43:48.194Z,91.68
2022-09-07T04:44:19.777Z,91.60
2022-09-07T04:44:51.362Z,91.14
2022-09-07T04:45:22.972Z,91.83
2022-09-07T04:45:54.769Z,91.71
2022-09-07T04:46:35.126Z,91.52
2022-09-07T04:47:06.914Z,91.83
2022-09-07T04:47:38.516Z,91.85
2022-09-07T04:48:10.105Z,91.73
2022-09-07T04:48:41.693Z,91.72
2022-09-07T04:49:13.824Z,91.62
2022-09-07T04:49:45.402Z,91.61
2022-09-07T04:50:18.382Z,91.99
2022-09-07T04:50:52.080Z,92.13
2022-09-07T04:51:26.278Z,92.53
2022-09-07T04:51:57.916Z,92.21
2022-09-07T04:52:29.544Z,92.08
2022-09-07T04:53:01.137Z,92.00
2022-09-07T04:53:34.159Z,91.59
2022-09-07T04:54:06.318Z,91.95
2022-09-07T04:54:38.025Z,92.51
2022-09-07T04:55:10.379Z,91.69
2022-09-07T04:55:41.965Z,91.64
2022-09-07T04:56:16.872Z,92.03
2022-09-07T04:56:48.722Z,92.46
2022-09-07T04:57:24.243Z,92.62
2022-09-07T04:57:55.881Z,92.67
2022-09-07T04:58:28.020Z,92.44
2022-09-07T04:59:01.369Z,92.71
2022-09-07T04:59:32.953Z,92.61
2022-09-07T05:00:10.964Z,91.69
2022-09-07T05:00:42.742Z,91.43
2022-09-07T05:01:17.668Z,91.61
2022-09-07T05:01:49.340Z,92.07
2022-09-07T05:02:21.046Z,92.34
2022-09-07T05:02:52.895Z,91.36
2022-09-07T05:03:24.583Z,90.62
2022-09-07T05:03:56.819Z,90.24
2022-09-07T05:04:28.407Z,90.53
2022-09-07T05:05:02.743Z,90.92
2022-09-07T05:05:38.171Z,90.53
2022-09-07T05:06:10.486Z,89.72
2022-09-07T05:06:42.221Z,89.39
2022-09-07T05:07:13.967Z,88.85
2022-09-07T05:07:45.617Z,89.24
2022-09-07T05:08:17.282Z,89.29
2022-09-07T05:08:51.331Z,90.38
2022-09-07T05:09:22.973Z,89.90
2022-09-07T05:09:54.549Z,89.87
2022-09-07T05:10:26.356Z,90.30
2022-09-07T05:10:57.965Z,90.42
2022-09-07T05:11:30.166Z,90.74
2022-09-07T05:12:02.189Z,89.46
2022-09-07T05:12:33.789Z,89.55
2022-09-07T05:13:05.500Z,90.12
2022-09-07T05:13:37.469Z,90.19
2022-09-07T05:14:10.430Z,90.35
2022-09-07T05:14:42.021Z,90.07
2022-09-07T05:15:13.725Z,89.72
2022-09-07T05:15:45.374Z,89.11
2022-09-07T05:16:19.661Z,89.42
2022-09-07T05:16:51.330Z,89.99
2022-09-07T05:17:23.015Z,90.24
2022-09-07T05:17:54.591Z,90.37
2022-09-07T05:18:26.687Z,89.75
2022-09-07T05:19:02.751Z,88.71
2022-09-07T05:19:34.377Z,89.24
2022-09-07T05:20:07.145Z,89.47
2022-09-07T05:20:38.733Z,90.41
2022-09-07T05:21:19.177Z,88.95
2022-09-07T05:21:50.781Z,89.54
2022-09-07T05:22:22.462Z,87.97
2022-09-07T05:22:59.546Z,88.10
2022-09-07T05:23:31.264Z,88.68
2022-09-07T05:24:04.190Z,88.27
2022-09-07T05:24:36.779Z,88.56
2022-09-07T05:25:09.563Z,89.04
2022-09-07T05:25:45.425Z,89.83
2022-09-07T05:26:18.153Z,90.08
2022-09-07T05:26:49.765Z,89.70
2022-09-07T05:27:21.489Z,87.66
2022-09-07T05:27:53.441Z,86.92
2022-09-07T05:28:25.027Z,86.83
2022-09-07T05:30:05.834Z,86.65
2022-09-07T05:31:31.210Z,87.12
2022-09-07T05:32:02.853Z,87.00
2022-09-07T05:32:34.430Z,85.86
2022-09-07T05:33:08.214Z,85.98
2022-09-07T05:34:32.524Z,86.48
2022-09-07T05:35:04.682Z,85.91
2022-09-07T05:35:36.315Z,86.35
2022-09-07T05:36:08.713Z,86.01
2022-09-07T05:36:40.448Z,85.88
2022-09-07T05:37:12.124Z,85.77
2022-09-07T05:37:43.827Z,86.23
2022-09-07T05:38:15.443Z,85.66
2022-09-07T05:38:47.441Z,85.62
2022-09-07T05:39:21.089Z,85.89
2022-09-07T05:39:56.893Z,85.99
2022-09-07T05:40:31.796Z,86.88
2022-09-07T05:41:17.794Z,85.50
2022-09-07T05:41:49.814Z,85.69
2022-09-07T05:42:21.412Z,84.79
2022-09-07T05:42:53.001Z,83.83
2022-09-07T05:43:24.657Z,84.01
2022-09-07T05:44:48.146Z,83.61
2022-09-07T05:45:19.832Z,82.90
2022-09-07T05:45:55.337Z,83.67
2022-09-07T05:46:27.010Z,84.11
2022-09-07T05:46:58.619Z,84.66
2022-09-07T05:47:30.264Z,85.11
2022-09-07T05:48:02.187Z,85.52
2022-09-07T05:48:33.984Z,84.42
2022-09-07T05:49:06.475Z,84.97
2022-09-07T05:49:38.186Z,86.04
2022-09-07T05:50:10.700Z,86.41
2022-09-07T05:50:52.696Z,82.57
2022-09-07T05:51:24.288Z,81.98
2022-09-07T05:51:55.864Z,81.87
2022-09-07T05:52:27.469Z,82.12
2022-09-07T05:52:59.330Z,83.65
2022-09-07T05:53:31.619Z,83.57
2022-09-07T05:54:03.670Z,82.53
2022-09-07T05:54:35.374Z,82.66
2022-09-07T05:55:28.183Z,84.08
2022-09-07T05:56:03.949Z,83.71
2022-09-07T05:56:38.211Z,83.78
2022-09-07T05:57:12.102Z,84.70
2022-09-07T05:57:43.700Z,83.18
2022-09-07T05:58:16.129Z,82.22
2022-09-07T05:58:50.808Z,81.80
2022-09-07T05:59:22.412Z,80.73
2022-09-07T05:59:54.061Z,80.43
2022-09-07T06:00:25.678Z,80.81
2022-09-07T06:01:01.809Z,81.42
2022-09-07T06:01:35.344Z,81.80
2022-09-07T06:02:07.693Z,82.15
2022-09-07T06:02:40.007Z,82.26
2022-09-07T06:03:12.094Z,82.19
2022-09-07T06:03:44.706Z,82.19
2022-09-07T06:04:16.659Z,82.31
2022-09-07T06:04:48.602Z,81.86
2022-09-07T06:05:20.193Z,82.56
2022-09-07T06:06:11.951Z,83.12
2022-09-07T06:06:54.590Z,83.50
2022-09-07T06:07:35.147Z,81.58
2022-09-07T06:08:06.834Z,80.11
2022-09-07T06:08:43.520Z,79.90
2022-09-07T06:09:15.114Z,80.20
2022-09-07T06:10:46.140Z,81.21
2022-09-07T06:11:20.326Z,82.38
2022-09-07T06:11:51.912Z,82.44
2022-09-07T06:12:23.572Z,82.53
2022-09-07T06:12:55.151Z,82.73
2022-09-07T06:13:26.979Z,82.56
2022-09-07T06:13:58.591Z,81.99
2022-09-07T06:14:30.208Z,82.08
2022-09-07T06:15:01.921Z,82.76
2022-09-07T06:15:34.422Z,82.77
2022-09-07T06:16:08.166Z,82.69
2022-09-07T06:16:40.129Z,82.59
2022-09-07T06:17:11.746Z,83.36
2022-09-07T06:17:43.468Z,81.52
2022-09-07T06:18:15.247Z,81.70
2022-09-07T06:18:48.607Z,81.99
2022-09-07T06:19:20.190Z,82.79
2022-09-07T06:19:51.774Z,83.46
2022-09-07T06:20:23.381Z,81.88
2022-09-07T06:20:55.059Z,80.46
2022-09-07T06:21:26.790Z,80.93
2022-09-07T06:21:58.376Z,81.05
2022-09-07T06:22:31.241Z,80.79
2022-09-07T06:23:03.013Z,80.45
2022-09-07T06:23:36.607Z,79.62
2022-09-07T06:24:08.476Z,79.40
2022-09-07T06:24:40.074Z,79.87
2022-09-07T06:25:11.659Z,79.53
2022-09-07T06:25:49.805Z,80.61
2022-09-07T06:26:21.550Z,79.69
2022-09-07T06:26:53.174Z,78.91
2022-09-07T06:27:24.811Z,78.55
2022-09-07T06:27:56.400Z,78.71
2022-09-07T06:28:30.134Z,79.55
2022-09-07T06:29:02.645Z,80.28
2022-09-07T06:29:34.378Z,77.84
2022-09-07T06:30:07.413Z,76.97
2022-09-07T06:30:39.042Z,78.62
2022-09-07T06:31:13.548Z,77.58
2022-09-07T06:32:45.691Z,77.84
2022-09-07T06:33:21.425Z,78.94
2022-09-07T06:33:54.913Z,77.88
2022-09-07T06:34:26.740Z,78.23
2022-09-07T06:34:58.362Z,78.17
2022-09-07T06:35:29.954Z,78.79
2022-09-07T06:36:21.837Z,80.24
2022-09-07T06:36:53.459Z,79.80
2022-09-07T06:37:25.082Z,79.87
2022-09-07T06:37:56.757Z,79.41
2022-09-07T06:38:32.841Z,79.13
2022-09-07T06:39:04.470Z,78.89
2022-09-07T06:39:36.469Z,78.60
2022-09-07T06:40:10.477Z,78.61
2022-09-07T06:40:42.420Z,77.16
2022-09-07T06:42:10.622Z,78.42
2022-09-07T06:42:42.375Z,76.60
2022-09-07T06:43:13.962Z,76.30
2022-09-07T06:43:46.502Z,76.39
2022-09-07T06:44:18.308Z,76.78
2022-09-07T06:44:49.883Z,77.52
2022-09-07T06:45:21.599Z,76.86
2022-09-07T06:45:54.617Z,76.99
2022-09-07T06:47:18.693Z,78.04
2022-09-07T06:47:53.950Z,78.13
2022-09-07T06:48:25.770Z,78.65
2022-09-07T06:48:57.398Z,78.29
2022-09-07T06:49:29.074Z,78.60
2022-09-07T06:50:01.481Z,78.66
2022-09-07T06:50:33.720Z,78.88
2022-09-07T06:51:19.533Z,76.34
2022-09-07T06:51:51.306Z,75.55
2022-09-07T06:52:23.004Z,76.17
2022-09-07T06:53:48.313Z,75.21
2022-09-07T06:55:11.718Z,74.38
2022-09-07T06:55:46.141Z,75.03
2022-09-07T06:56:19.309Z,75.43
2022-09-07T06:56:50.986Z,75.28
2022-09-07T06:57:22.571Z,74.62
2022-09-07T06:57:54.675Z,73.84
2022-09-07T06:58:27.120Z,73.65
2022-09-07T06:58:59.831Z,74.66
2022-09-07T06:59:31.404Z,74.98
2022-09-07T07:00:03.778Z,75.23
2022-09-07T07:00:35.454Z,74.34
2022-09-07T07:01:18.484Z,73.46
2022-09-07T07:01:50.175Z,73.02
2022-09-07T07:02:21.802Z,73.67
2022-09-07T07:02:53.431Z,74.25
2022-09-07T07:03:25.195Z,73.79
2022-09-07T07:03:56.851Z,73.90
2022-09-07T07:04:28.431Z,72.43
2022-09-07T07:05:00.015Z,71.62
2022-09-07T07:05:31.829Z,71.76
2022-09-07T07:06:04.296Z,72.84
2022-09-07T07:06:37.810Z,73.76
2022-09-07T07:07:13.952Z,72.29
2022-09-07T07:07:45.571Z,71.88
2022-09-07T07:08:17.218Z,72.30
2022-09-07T07:08:53.236Z,71.99
2022-09-07T07:09:24.861Z,72.17
2022-09-07T07:09:56.451Z,71.84
2022-09-07T07:10:28.235Z,72.47
2022-09-07T07:11:08.124Z,72.39
2022-09-07T07:11:39.726Z,70.82
2022-09-07T07:12:11.466Z,70.23
2022-09-07T07:13:48.049Z,69.52
2022-09-07T07:14:21.167Z,68.74
2022-09-07T07:14:52.840Z,68.36
2022-09-07T07:15:28.625Z,67.80
2022-09-07T07:16:12.319Z,67.52
2022-09-07T07:16:44.146Z,67.13
2022-09-07T07:17:15.771Z,67.62
2022-09-07T07:17:53.160Z,67.91
2022-09-07T07:18:27.863Z,67.99
2022-09-07T07:18:59.518Z,68.42
2022-09-07T07:19:31.102Z,68.67
2022-09-07T07:20:02.973Z,69.43
2022-09-07T07:20:42.170Z,69.77
2022-09-07T07:21:15.644Z,68.48
2022-09-07T07:22:47.035Z,70.46
2022-09-07T07:23:18.862Z,70.90
2022-09-07T07:23:52.269Z,69.30
2022-09-07T07:24:23.850Z,68.90
2022-09-07T07:24:55.454Z,68.21
2022-09-07T07:25:27.268Z,68.10
2022-09-07T07:26:06.203Z,68.93
2022-09-07T07:26:38.164Z,69.15
2022-09-07T07:27:09.801Z,69.33
2022-09-07T07:27:41.574Z,69.06
2022-09-07T07:29:05.678Z,69.24
2022-09-07T07:29:37.261Z,67.74
2022-09-07T07:30:09.327Z,67.39
2022-09-07T07:30:40.937Z,67.22
2022-09-07T07:31:13.383Z,66.47
2022-09-07T07:31:45.183Z,65.86
2022-09-07T07:32:16.844Z,65.31
2022-09-07T07:32:48.467Z,65.03
2022-09-07T07:33:20.113Z,65.71
2022-09-07T07:33:54.074Z,65.54
2022-09-07T07:34:25.809Z,65.58
2022-09-07T07:34:57.486Z,64.97
2022-09-07T07:35:29.166Z,64.72
2022-09-07T07:36:08.500Z,63.87
2022-09-07T07:36:40.477Z,63.93
2022-09-07T07:37:12.022Z,64.07
2022-09-07T07:37:43.600Z,63.70
2022-09-07T07:39:06.805Z,62.90
2022-09-07T07:40:31.839Z,62.28
2022-09-07T07:42:00.140Z,62.96
2022-09-07T07:42:38.471Z,62.60
2022-09-07T07:43:10.181Z,64.03
2022-09-07T07:43:41.921Z,64.61
2022-09-07T07:44:13.500Z,64.49
2022-09-07T07:44:45.294Z,63.33